Terminal Aerodrome Forecast
Issued by NWS

Home | Current Version | Previous Version | Text Only | Print | Product List | Glossary On
Versions: 1 2 3 4 5 6 7 8 9 10 11 12 13 14 15 16 17 18 19 20 21 22 23
000
FTUS46 KMTR 010543 CCA
TAFMRY
TAF COR
KMRY 010543Z 0106/0206 24003KT P6SM OVC008
     FM011000 25003KT 6SM BR OVC006
      TEMPO 0112/0116 3SM BR BKN003
     FM011900 28008KT P6SM OVC015
     FM012100 26010KT P6SM FEW015 SCT250
     FM020200 25005KT P6SM BKN015=

USA.gov is the U.S. government's official web portal to all federal, state and local government web resources and services.